LYBE/BEG METAR and TAF weather

Enter ICAO airport designator
Station Type Date Time Source
LYBE METAR 2022/08/12 14:00 UTC NOAA

LYBE 121400Z 01005KT 340V060 9999 FEW040 29/08 Q1014 NOSIG


Station Type Date Time Source
LYBE Decoded METAR 2022/08/12 14:00 UTC NOAA

Beograd / Surcin, Serbia and Montenegro (LYBE) 44-49N 020-17E 99M
Aug 12, 2022 - 10:00 AM EDT / 2022.08.12 1400 UTC
Wind: from the N (010 degrees) at 6 MPH (5 KT) (direction variable):0
Visibility: greater than 7 mile(s):0
Sky conditions: mostly clear
Temperature: 84 F (29 C)
Dew Point: 46 F (8 C)
Relative Humidity: 26%
Pressure (altimeter): 29.94 in. Hg (1014 hPa)
ob: LYBE 121400Z 01005KT 340V060 9999 FEW040 29/08 Q1014 NOSIG
cycle: 14

Station Type Date Time Source
LYBE TAF 2022/08/12 12:22 UTC NOAA

TAF COR LYBE 121100Z 1212/1312 04005KT 9999 FEW040 TX31/1213Z TN15/1303Z
BECMG 1303/1305 27010KT
TEMPO 1304/1308 VRB15G25KT 5000 TSRA SCT033CB SCT040

Example: see airport list